sensor_id;sensor_type;location;lat;lon;timestamp;P1;durP1;ratioP1;P2;durP2;ratioP2
52764;SDS011;38650;44.536;18.664;2022-09-09T00:04:36;3.22;;;2.38;;
52764;SDS011;38650;44.536;18.664;2022-09-09T00:07:04;3.80;;;2.83;;
52764;SDS011;38650;44.536;18.664;2022-09-09T00:09:36;4.47;;;2.72;;
52764;SDS011;38650;44.536;18.664;2022-09-09T00:12:27;4.47;;;3.20;;
52764;SDS011;38650;44.536;18.664;2022-09-09T00:15:20;4.03;;;2.65;;
52764;SDS011;38650;44.536;18.664;2022-09-09T00:20:28;2.95;;;2.45;;
52764;SDS011;38650;44.536;18.664;2022-09-09T00:23:08;4.75;;;2.90;;
52764;SDS011;38650;44.536;18.664;2022-09-09T00:25:58;3.38;;;2.72;;
52764;SDS011;38650;44.536;18.664;2022-09-09T00:31:04;2.72;;;2.17;;
52764;SDS011;38650;44.536;18.664;2022-09-09T00:33:36;3.40;;;2.47;;
52764;SDS011;38650;44.536;18.664;2022-09-09T00:36:04;2.78;;;2.53;;
52764;SDS011;38650;44.536;18.664;2022-09-09T00:38:48;3.85;;;3.17;;
52764;SDS011;38650;44.536;18.664;2022-09-09T00:49:41;2.75;;;2.45;;
52764;SDS011;38650;44.536;18.664;2022-09-09T00:57:35;3.78;;;3.00;;
52764;SDS011;38650;44.536;18.664;2022-09-09T01:05:48;3.35;;;2.78;;
52764;SDS011;38650;44.536;18.664;2022-09-09T01:16:50;2.80;;;2.47;;
52764;SDS011;38650;44.536;18.664;2022-09-09T01:22:30;2.20;;;2.00;;
52764;SDS011;38650;44.536;18.664;2022-09-09T01:28:03;1.85;;;1.70;;
52764;SDS011;38650;44.536;18.664;2022-09-09T01:30:35;2.83;;;2.53;;
52764;SDS011;38650;44.536;18.664;2022-09-09T01:33:03;2.88;;;2.67;;
52764;SDS011;38650;44.536;18.664;2022-09-09T01:38:19;5.25;;;4.03;;
52764;SDS011;38650;44.536;18.664;2022-09-09T01:40:45;6.35;;;4.53;;
52764;SDS011;38650;44.536;18.664;2022-09-09T01:43:11;4.78;;;4.15;;
52764;SDS011;38650;44.536;18.664;2022-09-09T01:45:38;4.80;;;4.22;;
52764;SDS011;38650;44.536;18.664;2022-09-09T01:48:06;4.40;;;4.00;;
52764;SDS011;38650;44.536;18.664;2022-09-09T01:50:31;5.07;;;3.97;;
52764;SDS011;38650;44.536;18.664;2022-09-09T01:52:57;7.18;;;5.72;;
52764;SDS011;38650;44.536;18.664;2022-09-09T01:55:29;4.97;;;4.47;;
52764;SDS011;38650;44.536;18.664;2022-09-09T01:58:01;4.15;;;3.83;;
52764;SDS011;38650;44.536;18.664;2022-09-09T02:00:31;3.90;;;3.60;;
52764;SDS011;38650;44.536;18.664;2022-09-09T02:05:45;7.95;;;5.72;;
52764;SDS011;38650;44.536;18.664;2022-09-09T02:13:29;6.63;;;5.60;;
52764;SDS011;38650;44.536;18.664;2022-09-09T02:16:05;18.08;;;8.15;;
52764;SDS011;38650;44.536;18.664;2022-09-09T02:21:20;11.43;;;7.57;;
52764;SDS011;38650;44.536;18.664;2022-09-09T02:23:47;9.07;;;7.13;;
52764;SDS011;38650;44.536;18.664;2022-09-09T02:26:17;9.00;;;7.18;;
52764;SDS011;38650;44.536;18.664;2022-09-09T02:28:50;10.43;;;7.75;;
52764;SDS011;38650;44.536;18.664;2022-09-09T02:31:20;8.85;;;6.40;;
52764;SDS011;38650;44.536;18.664;2022-09-09T02:33:54;10.73;;;7.95;;
52764;SDS011;38650;44.536;18.664;2022-09-09T02:36:24;8.82;;;7.43;;
52764;SDS011;38650;44.536;18.664;2022-09-09T02:38:54;8.10;;;6.68;;
52764;SDS011;38650;44.536;18.664;2022-09-09T02:41:22;7.05;;;5.65;;
52764;SDS011;38650;44.536;18.664;2022-09-09T02:43:53;8.52;;;6.57;;
52764;SDS011;38650;44.536;18.664;2022-09-09T02:49:08;7.20;;;6.05;;
52764;SDS011;38650;44.536;18.664;2022-09-09T02:56:56;4.80;;;4.22;;
52764;SDS011;38650;44.536;18.664;2022-09-09T02:59:29;3.88;;;3.58;;
52764;SDS011;38650;44.536;18.664;2022-09-09T03:01:55;4.13;;;3.72;;
52764;SDS011;38650;44.536;18.664;2022-09-09T03:04:21;5.95;;;4.85;;
52764;SDS011;38650;44.536;18.664;2022-09-09T03:06:47;5.55;;;4.20;;
52764;SDS011;38650;44.536;18.664;2022-09-09T03:09:12;6.70;;;4.95;;
52764;SDS011;38650;44.536;18.664;2022-09-09T03:11:38;4.18;;;3.80;;
52764;SDS011;38650;44.536;18.664;2022-09-09T03:14:04;3.70;;;3.40;;
52764;SDS011;38650;44.536;18.664;2022-09-09T03:16:30;4.65;;;3.60;;
52764;SDS011;38650;44.536;18.664;2022-09-09T03:18:55;4.50;;;4.10;;
52764;SDS011;38650;44.536;18.664;2022-09-09T03:21:21;4.63;;;4.13;;
52764;SDS011;38650;44.536;18.664;2022-09-09T03:23:47;4.97;;;4.10;;
52764;SDS011;38650;44.536;18.664;2022-09-09T03:26:13;4.45;;;4.13;;
52764;SDS011;38650;44.536;18.664;2022-09-09T03:28:40;4.22;;;3.83;;
52764;SDS011;38650;44.536;18.664;2022-09-09T03:31:06;4.10;;;3.63;;
52764;SDS011;38650;44.536;18.664;2022-09-09T03:33:35;7.25;;;5.20;;
52764;SDS011;38650;44.536;18.664;2022-09-09T03:36:02;6.75;;;5.10;;
52764;SDS011;38650;44.536;18.664;2022-09-09T03:38:29;4.72;;;4.32;;
52764;SDS011;38650;44.536;18.664;2022-09-09T03:40:55;4.50;;;4.10;;
52764;SDS011;38650;44.536;18.664;2022-09-09T03:43:25;5.95;;;3.97;;
52764;SDS011;38650;44.536;18.664;2022-09-09T03:45:52;4.10;;;3.72;;
52764;SDS011;38650;44.536;18.664;2022-09-09T03:48:18;3.85;;;3.35;;
52764;SDS011;38650;44.536;18.664;2022-09-09T03:50:51;5.18;;;4.15;;
52764;SDS011;38650;44.536;18.664;2022-09-09T03:53:19;4.00;;;3.70;;
52764;SDS011;38650;44.536;18.664;2022-09-09T03:55:47;3.00;;;2.80;;
52764;SDS011;38650;44.536;18.664;2022-09-09T03:58:24;3.63;;;3.33;;
52764;SDS011;38650;44.536;18.664;2022-09-09T04:00:55;3.50;;;3.20;;
52764;SDS011;38650;44.536;18.664;2022-09-09T04:03:22;3.65;;;3.00;;
52764;SDS011;38650;44.536;18.664;2022-09-09T04:05:49;4.20;;;3.80;;
52764;SDS011;38650;44.536;18.664;2022-09-09T04:08:19;4.90;;;4.50;;
52764;SDS011;38650;44.536;18.664;2022-09-09T04:10:49;4.97;;;3.55;;
52764;SDS011;38650;44.536;18.664;2022-09-09T04:13:15;3.60;;;3.30;;
52764;SDS011;38650;44.536;18.664;2022-09-09T04:15:42;4.03;;;3.63;;
52764;SDS011;38650;44.536;18.664;2022-09-09T04:18:18;3.47;;;3.20;;
52764;SDS011;38650;44.536;18.664;2022-09-09T04:20:51;3.00;;;2.80;;
52764;SDS011;38650;44.536;18.664;2022-09-09T04:23:18;3.38;;;3.10;;
52764;SDS011;38650;44.536;18.664;2022-09-09T04:25:49;3.65;;;3.08;;
52764;SDS011;38650;44.536;18.664;2022-09-09T04:28:16;4.07;;;3.35;;
52764;SDS011;38650;44.536;18.664;2022-09-09T04:30:44;5.28;;;3.80;;
52764;SDS011;38650;44.536;18.664;2022-09-09T04:33:10;4.90;;;4.40;;
52764;SDS011;38650;44.536;18.664;2022-09-09T04:35:37;7.32;;;4.40;;
52764;SDS011;38650;44.536;18.664;2022-09-09T04:38:03;3.60;;;3.30;;
52764;SDS011;38650;44.536;18.664;2022-09-09T04:40:32;4.70;;;3.58;;
52764;SDS011;38650;44.536;18.664;2022-09-09T04:42:58;4.00;;;3.70;;
52764;SDS011;38650;44.536;18.664;2022-09-09T04:45:24;6.00;;;4.40;;
52764;SDS011;38650;44.536;18.664;2022-09-09T04:47:51;4.18;;;3.78;;
52764;SDS011;38650;44.536;18.664;2022-09-09T04:50:17;5.10;;;4.03;;
52764;SDS011;38650;44.536;18.664;2022-09-09T04:52:43;4.13;;;3.72;;
52764;SDS011;38650;44.536;18.664;2022-09-09T04:55:09;3.72;;;3.40;;
52764;SDS011;38650;44.536;18.664;2022-09-09T04:57:35;3.70;;;3.40;;
52764;SDS011;38650;44.536;18.664;2022-09-09T05:00:01;4.03;;;3.63;;
52764;SDS011;38650;44.536;18.664;2022-09-09T05:02:28;3.85;;;3.55;;
52764;SDS011;38650;44.536;18.664;2022-09-09T05:04:55;4.97;;;4.57;;
52764;SDS011;38650;44.536;18.664;2022-09-09T05:07:21;4.38;;;3.97;;
52764;SDS011;38650;44.536;18.664;2022-09-09T05:09:46;4.30;;;3.90;;
52764;SDS011;38650;44.536;18.664;2022-09-09T05:12:14;4.40;;;3.60;;
52764;SDS011;38650;44.536;18.664;2022-09-09T05:14:43;4.10;;;3.80;;
52764;SDS011;38650;44.536;18.664;2022-09-09T05:17:09;5.30;;;4.80;;
52764;SDS011;38650;44.536;18.664;2022-09-09T05:19:35;6.15;;;4.57;;
52764;SDS011;38650;44.536;18.664;2022-09-09T05:22:01;4.72;;;4.32;;
52764;SDS011;38650;44.536;18.664;2022-09-09T05:24:27;4.50;;;4.13;;
52764;SDS011;38650;44.536;18.664;2022-09-09T05:26:53;5.97;;;4.40;;
52764;SDS011;38650;44.536;18.664;2022-09-09T05:29:19;5.20;;;4.75;;
52764;SDS011;38650;44.536;18.664;2022-09-09T05:31:45;6.20;;;4.43;;
52764;SDS011;38650;44.536;18.664;2022-09-09T05:34:12;5.47;;;4.13;;
52764;SDS011;38650;44.536;18.664;2022-09-09T05:36:37;3.80;;;3.50;;
52764;SDS011;38650;44.536;18.664;2022-09-09T05:39:03;4.78;;;3.97;;
52764;SDS011;38650;44.536;18.664;2022-09-09T05:41:29;6.15;;;5.25;;
52764;SDS011;38650;44.536;18.664;2022-09-09T05:43:58;6.60;;;4.68;;
52764;SDS011;38650;44.536;18.664;2022-09-09T05:46:26;5.25;;;4.35;;
52764;SDS011;38650;44.536;18.664;2022-09-09T05:48:52;4.55;;;4.15;;
52764;SDS011;38650;44.536;18.664;2022-09-09T05:51:20;4.55;;;4.18;;
52764;SDS011;38650;44.536;18.664;2022-09-09T05:53:47;4.47;;;4.07;;
52764;SDS011;38650;44.536;18.664;2022-09-09T05:56:15;4.47;;;4.10;;
52764;SDS011;38650;44.536;18.664;2022-09-09T05:58:46;5.93;;;4.95;;
52764;SDS011;38650;44.536;18.664;2022-09-09T06:01:13;4.32;;;4.03;;
52764;SDS011;38650;44.536;18.664;2022-09-09T06:03:40;4.03;;;3.72;;
52764;SDS011;38650;44.536;18.664;2022-09-09T06:06:08;4.65;;;4.00;;
52764;SDS011;38650;44.536;18.664;2022-09-09T06:08:36;4.68;;;4.28;;
52764;SDS011;38650;44.536;18.664;2022-09-09T06:11:04;4.28;;;3.67;;
52764;SDS011;38650;44.536;18.664;2022-09-09T06:13:31;4.00;;;3.60;;
52764;SDS011;38650;44.536;18.664;2022-09-09T06:15:57;3.95;;;3.65;;
52764;SDS011;38650;44.536;18.664;2022-09-09T06:18:24;3.47;;;3.17;;
52764;SDS011;38650;44.536;18.664;2022-09-09T06:21:00;3.25;;;3.05;;
52764;SDS011;38650;44.536;18.664;2022-09-09T06:23:29;3.58;;;3.28;;
52764;SDS011;38650;44.536;18.664;2022-09-09T06:26:02;4.18;;;3.78;;
52764;SDS011;38650;44.536;18.664;2022-09-09T06:28:34;4.25;;;3.05;;
52764;SDS011;38650;44.536;18.664;2022-09-09T06:31:01;3.75;;;3.45;;
52764;SDS011;38650;44.536;18.664;2022-09-09T06:33:32;3.60;;;3.30;;
52764;SDS011;38650;44.536;18.664;2022-09-09T06:36:00;4.90;;;3.80;;
52764;SDS011;38650;44.536;18.664;2022-09-09T06:38:29;3.90;;;3.50;;
52764;SDS011;38650;44.536;18.664;2022-09-09T06:40:55;5.25;;;3.85;;
52764;SDS011;38650;44.536;18.664;2022-09-09T06:43:23;6.07;;;5.20;;
52764;SDS011;38650;44.536;18.664;2022-09-09T06:45:58;5.82;;;5.22;;
52764;SDS011;38650;44.536;18.664;2022-09-09T06:48:28;4.78;;;4.32;;
52764;SDS011;38650;44.536;18.664;2022-09-09T06:51:04;4.95;;;4.45;;
52764;SDS011;38650;44.536;18.664;2022-09-09T06:53:32;5.28;;;4.57;;
52764;SDS011;38650;44.536;18.664;2022-09-09T06:56:03;4.00;;;3.70;;
52764;SDS011;38650;44.536;18.664;2022-09-09T06:58:48;3.45;;;3.17;;
52764;SDS011;38650;44.536;18.664;2022-09-09T07:01:35;3.17;;;2.88;;
52764;SDS011;38650;44.536;18.664;2022-09-09T07:04:05;3.75;;;2.88;;
52764;SDS011;38650;44.536;18.664;2022-09-09T07:06:37;3.70;;;2.50;;
52764;SDS011;38650;44.536;18.664;2022-09-09T07:09:08;2.95;;;2.75;;
52764;SDS011;38650;44.536;18.664;2022-09-09T07:11:39;3.53;;;3.00;;
52764;SDS011;38650;44.536;18.664;2022-09-09T07:14:10;3.80;;;3.00;;
52764;SDS011;38650;44.536;18.664;2022-09-09T07:16:40;2.65;;;2.45;;
52764;SDS011;38650;44.536;18.664;2022-09-09T07:19:10;3.72;;;3.00;;
52764;SDS011;38650;44.536;18.664;2022-09-09T07:21:40;3.58;;;2.90;;
52764;SDS011;38650;44.536;18.664;2022-09-09T07:24:06;3.28;;;2.50;;
52764;SDS011;38650;44.536;18.664;2022-09-09T07:26:35;2.13;;;1.98;;
52764;SDS011;38650;44.536;18.664;2022-09-09T07:29:03;2.85;;;2.58;;
52764;SDS011;38650;44.536;18.664;2022-09-09T07:31:31;2.55;;;2.35;;
52764;SDS011;38650;44.536;18.664;2022-09-09T07:33:59;2.80;;;2.60;;
52764;SDS011;38650;44.536;18.664;2022-09-09T07:36:26;4.15;;;2.38;;
52764;SDS011;38650;44.536;18.664;2022-09-09T07:38:57;3.60;;;2.83;;
52764;SDS011;38650;44.536;18.664;2022-09-09T07:41:45;2.85;;;2.63;;
52764;SDS011;38650;44.536;18.664;2022-09-09T07:44:13;2.65;;;2.22;;
52764;SDS011;38650;44.536;18.664;2022-09-09T07:46:41;2.47;;;2.28;;
52764;SDS011;38650;44.536;18.664;2022-09-09T07:49:08;2.97;;;2.78;;
52764;SDS011;38650;44.536;18.664;2022-09-09T07:51:36;4.03;;;2.55;;
52764;SDS011;38650;44.536;18.664;2022-09-09T07:54:05;3.40;;;2.97;;
52764;SDS011;38650;44.536;18.664;2022-09-09T07:56:34;4.63;;;3.05;;
52764;SDS011;38650;44.536;18.664;2022-09-09T07:59:02;4.00;;;3.33;;
52764;SDS011;38650;44.536;18.664;2022-09-09T08:01:32;3.15;;;2.92;;
52764;SDS011;38650;44.536;18.664;2022-09-09T08:04:09;3.15;;;2.95;;
52764;SDS011;38650;44.536;18.664;2022-09-09T08:06:41;2.38;;;2.28;;
52764;SDS011;38650;44.536;18.664;2022-09-09T08:09:09;9.45;;;4.07;;
52764;SDS011;38650;44.536;18.664;2022-09-09T08:11:35;3.40;;;3.10;;
52764;SDS011;38650;44.536;18.664;2022-09-09T08:14:02;2.92;;;2.72;;
52764;SDS011;38650;44.536;18.664;2022-09-09T08:16:30;2.90;;;2.70;;
52764;SDS011;38650;44.536;18.664;2022-09-09T08:18:57;3.35;;;2.60;;
52764;SDS011;38650;44.536;18.664;2022-09-09T08:21:24;3.63;;;3.33;;
52764;SDS011;38650;44.536;18.664;2022-09-09T08:23:55;2.85;;;2.65;;
52764;SDS011;38650;44.536;18.664;2022-09-09T08:26:23;3.45;;;3.15;;
52764;SDS011;38650;44.536;18.664;2022-09-09T08:28:56;3.95;;;3.20;;
52764;SDS011;38650;44.536;18.664;2022-09-09T08:31:33;3.03;;;2.83;;
52764;SDS011;38650;44.536;18.664;2022-09-09T08:34:02;3.25;;;2.95;;
52764;SDS011;38650;44.536;18.664;2022-09-09T08:36:30;2.55;;;2.35;;
52764;SDS011;38650;44.536;18.664;2022-09-09T08:39:01;2.75;;;2.35;;
52764;SDS011;38650;44.536;18.664;2022-09-09T08:44:19;2.60;;;2.40;;
52764;SDS011;38650;44.536;18.664;2022-09-09T08:52:30;2.50;;;2.30;;
52764;SDS011;38650;44.536;18.664;2022-09-09T08:57:54;2.88;;;2.60;;
52764;SDS011;38650;44.536;18.664;2022-09-09T09:00:22;3.05;;;2.67;;
52764;SDS011;38650;44.536;18.664;2022-09-09T09:03:04;4.03;;;2.40;;
52764;SDS011;38650;44.536;18.664;2022-09-09T09:05:47;2.92;;;2.70;;
52764;SDS011;38650;44.536;18.664;2022-09-09T09:08:36;2.40;;;2.20;;
52764;SDS011;38650;44.536;18.664;2022-09-09T09:11:14;2.60;;;2.25;;
52764;SDS011;38650;44.536;18.664;2022-09-09T09:13:42;2.22;;;2.03;;
52764;SDS011;38650;44.536;18.664;2022-09-09T09:16:23;3.38;;;2.17;;
52764;SDS011;38650;44.536;18.664;2022-09-09T09:18:57;1.85;;;1.75;;
52764;SDS011;38650;44.536;18.664;2022-09-09T09:24:05;3.38;;;2.00;;
52764;SDS011;38650;44.536;18.664;2022-09-09T09:26:40;1.85;;;1.70;;
52764;SDS011;38650;44.536;18.664;2022-09-09T09:29:16;2.92;;;1.67;;
52764;SDS011;38650;44.536;18.664;2022-09-09T09:32:02;6.05;;;1.83;;
52764;SDS011;38650;44.536;18.664;2022-09-09T09:34:29;2.50;;;2.10;;
52764;SDS011;38650;44.536;18.664;2022-09-09T09:36:58;2.45;;;2.25;;
52764;SDS011;38650;44.536;18.664;2022-09-09T09:39:30;3.60;;;2.53;;
52764;SDS011;38650;44.536;18.664;2022-09-09T09:42:11;2.92;;;2.05;;
52764;SDS011;38650;44.536;18.664;2022-09-09T09:44:39;3.05;;;2.10;;
52764;SDS011;38650;44.536;18.664;2022-09-09T09:49:53;2.00;;;1.90;;
52764;SDS011;38650;44.536;18.664;2022-09-09T09:52:25;2.75;;;2.00;;
52764;SDS011;38650;44.536;18.664;2022-09-09T09:54:56;2.20;;;2.00;;
52764;SDS011;38650;44.536;18.664;2022-09-09T09:57:26;2.72;;;2.00;;
52764;SDS011;38650;44.536;18.664;2022-09-09T10:02:38;2.60;;;2.10;;
52764;SDS011;38650;44.536;18.664;2022-09-09T10:05:12;3.37;;;2.20;;
52764;SDS011;38650;44.536;18.664;2022-09-09T10:07:40;1.95;;;1.75;;
52764;SDS011;38650;44.536;18.664;2022-09-09T10:10:08;2.78;;;2.13;;
52764;SDS011;38650;44.536;18.664;2022-09-09T10:12:47;1.65;;;1.55;;
52764;SDS011;38650;44.536;18.664;2022-09-09T10:19:20;3.35;;;2.13;;
52764;SDS011;38650;44.536;18.664;2022-09-09T10:26:55;1.80;;;1.70;;
52764;SDS011;38650;44.536;18.664;2022-09-09T10:32:48;1.65;;;1.30;;
52764;SDS011;38650;44.536;18.664;2022-09-09T10:38:17;2.38;;;1.98;;
52764;SDS011;38650;44.536;18.664;2022-09-09T10:41:09;2.33;;;1.58;;
52764;SDS011;38650;44.536;18.664;2022-09-09T10:46:11;1.60;;;1.33;;
52764;SDS011;38650;44.536;18.664;2022-09-09T10:52:38;2.25;;;1.40;;
52764;SDS011;38650;44.536;18.664;2022-09-09T10:55:23;1.50;;;1.40;;
52764;SDS011;38650;44.536;18.664;2022-09-09T10:57:51;1.58;;;1.25;;
52764;SDS011;38650;44.536;18.664;2022-09-09T11:00:27;1.35;;;1.13;;
52764;SDS011;38650;44.536;18.664;2022-09-09T11:03:02;2.13;;;1.38;;
52764;SDS011;38650;44.536;18.664;2022-09-09T11:05:41;1.77;;;1.40;;
52764;SDS011;38650;44.536;18.664;2022-09-09T11:13:16;0.93;;;0.93;;
52764;SDS011;38650;44.536;18.664;2022-09-09T11:15:51;1.00;;;1.00;;
52764;SDS011;38650;44.536;18.664;2022-09-09T11:18:21;1.30;;;1.20;;
52764;SDS011;38650;44.536;18.664;2022-09-09T11:20:49;1.25;;;1.15;;
52764;SDS011;38650;44.536;18.664;2022-09-09T11:23:34;1.30;;;1.20;;
52764;SDS011;38650;44.536;18.664;2022-09-09T11:26:06;1.17;;;1.08;;
52764;SDS011;38650;44.536;18.664;2022-09-09T11:28:41;1.20;;;1.10;;
52764;SDS011;38650;44.536;18.664;2022-09-09T11:39:42;2.47;;;1.30;;
52764;SDS011;38650;44.536;18.664;2022-09-09T11:42:28;1.58;;;1.38;;
52764;SDS011;38650;44.536;18.664;2022-09-09T11:44:53;1.60;;;1.50;;
52764;SDS011;38650;44.536;18.664;2022-09-09T11:47:26;1.40;;;1.30;;
52764;SDS011;38650;44.536;18.664;2022-09-09T11:52:41;1.48;;;1.27;;
52764;SDS011;38650;44.536;18.664;2022-09-09T11:58:00;2.30;;;1.27;;
52764;SDS011;38650;44.536;18.664;2022-09-09T12:00:29;1.45;;;1.08;;
52764;SDS011;38650;44.536;18.664;2022-09-09T12:02:58;1.40;;;1.30;;
52764;SDS011;38650;44.536;18.664;2022-09-09T12:05:24;1.80;;;0.93;;
52764;SDS011;38650;44.536;18.664;2022-09-09T12:08:05;2.20;;;1.30;;
52764;SDS011;38650;44.536;18.664;2022-09-09T12:10:35;1.67;;;1.27;;
52764;SDS011;38650;44.536;18.664;2022-09-09T12:15:48;2.35;;;1.17;;
52764;SDS011;38650;44.536;18.664;2022-09-09T12:18:21;1.33;;;1.23;;
52764;SDS011;38650;44.536;18.664;2022-09-09T12:21:02;1.30;;;1.02;;
52764;SDS011;38650;44.536;18.664;2022-09-09T12:23:48;1.00;;;1.00;;
52764;SDS011;38650;44.536;18.664;2022-09-09T12:26:34;1.48;;;1.00;;
52764;SDS011;38650;44.536;18.664;2022-09-09T12:32:02;1.13;;;0.82;;
52764;SDS011;38650;44.536;18.664;2022-09-09T12:40:52;2.90;;;1.23;;
52764;SDS011;38650;44.536;18.664;2022-09-09T12:42:54;1.90;;;1.00;;
52764;SDS011;38650;44.536;18.664;2022-09-09T12:45:21;1.38;;;1.15;;
52764;SDS011;38650;44.536;18.664;2022-09-09T12:48:08;1.85;;;1.13;;
52764;SDS011;38650;44.536;18.664;2022-09-09T12:50:37;21.10;;;4.53;;
52764;SDS011;38650;44.536;18.664;2022-09-09T12:53:11;12.90;;;3.47;;
52764;SDS011;38650;44.536;18.664;2022-09-09T12:55:56;4.22;;;1.88;;
52764;SDS011;38650;44.536;18.664;2022-09-09T13:00:57;2.15;;;1.38;;
52764;SDS011;38650;44.536;18.664;2022-09-09T13:03:24;1.98;;;1.23;;
52764;SDS011;38650;44.536;18.664;2022-09-09T13:05:51;1.42;;;1.15;;
52764;SDS011;38650;44.536;18.664;2022-09-09T13:08:18;2.80;;;1.23;;
52764;SDS011;38650;44.536;18.664;2022-09-09T13:10:55;2.13;;;1.40;;
52764;SDS011;38650;44.536;18.664;2022-09-09T13:13:34;1.85;;;1.10;;
52764;SDS011;38650;44.536;18.664;2022-09-09T13:16:02;1.00;;;0.90;;
52764;SDS011;38650;44.536;18.664;2022-09-09T13:18:34;1.52;;;1.25;;
52764;SDS011;38650;44.536;18.664;2022-09-09T13:21:03;1.20;;;1.10;;
52764;SDS011;38650;44.536;18.664;2022-09-09T13:23:29;3.33;;;0.95;;
52764;SDS011;38650;44.536;18.664;2022-09-09T13:26:00;1.10;;;1.00;;
52764;SDS011;38650;44.536;18.664;2022-09-09T13:28:29;1.40;;;1.23;;
52764;SDS011;38650;44.536;18.664;2022-09-09T13:31:05;1.98;;;1.02;;
52764;SDS011;38650;44.536;18.664;2022-09-09T13:33:44;1.38;;;1.05;;
52764;SDS011;38650;44.536;18.664;2022-09-09T13:36:11;0.82;;;0.82;;
52764;SDS011;38650;44.536;18.664;2022-09-09T13:41:11;1.50;;;0.90;;
52764;SDS011;38650;44.536;18.664;2022-09-09T13:43:46;1.10;;;1.00;;
52764;SDS011;38650;44.536;18.664;2022-09-09T13:46:24;1.65;;;1.10;;
52764;SDS011;38650;44.536;18.664;2022-09-09T13:48:57;0.88;;;0.80;;
52764;SDS011;38650;44.536;18.664;2022-09-09T13:54:01;0.82;;;0.82;;
52764;SDS011;38650;44.536;18.664;2022-09-09T13:56:32;1.00;;;0.90;;
52764;SDS011;38650;44.536;18.664;2022-09-09T13:58:58;1.42;;;0.90;;
52764;SDS011;38650;44.536;18.664;2022-09-09T14:01:24;0.80;;;0.80;;
52764;SDS011;38650;44.536;18.664;2022-09-09T14:03:50;1.13;;;0.90;;
52764;SDS011;38650;44.536;18.664;2022-09-09T14:06:16;0.80;;;0.70;;
52764;SDS011;38650;44.536;18.664;2022-09-09T14:08:43;0.70;;;0.70;;
52764;SDS011;38650;44.536;18.664;2022-09-09T14:11:11;0.82;;;0.80;;
52764;SDS011;38650;44.536;18.664;2022-09-09T14:13:38;0.80;;;0.80;;
52764;SDS011;38650;44.536;18.664;2022-09-09T14:16:04;0.60;;;0.60;;
52764;SDS011;38650;44.536;18.664;2022-09-09T14:18:29;0.80;;;0.70;;
52764;SDS011;38650;44.536;18.664;2022-09-09T14:20:55;0.70;;;0.70;;
52764;SDS011;38650;44.536;18.664;2022-09-09T14:23:22;1.60;;;0.90;;
52764;SDS011;38650;44.536;18.664;2022-09-09T14:25:49;1.42;;;0.90;;
52764;SDS011;38650;44.536;18.664;2022-09-09T14:28:16;0.80;;;0.70;;
52764;SDS011;38650;44.536;18.664;2022-09-09T14:30:42;1.10;;;0.80;;
52764;SDS011;38650;44.536;18.664;2022-09-09T14:33:10;1.35;;;0.95;;
52764;SDS011;38650;44.536;18.664;2022-09-09T14:35:38;0.85;;;0.85;;
52764;SDS011;38650;44.536;18.664;2022-09-09T14:38:04;1.48;;;0.90;;
52764;SDS011;38650;44.536;18.664;2022-09-09T14:40:30;0.95;;;0.90;;
52764;SDS011;38650;44.536;18.664;2022-09-09T14:42:56;1.23;;;1.00;;
52764;SDS011;38650;44.536;18.664;2022-09-09T14:45:22;1.23;;;0.82;;
52764;SDS011;38650;44.536;18.664;2022-09-09T14:47:50;1.27;;;0.80;;
52764;SDS011;38650;44.536;18.664;2022-09-09T14:50:16;1.15;;;1.00;;
52764;SDS011;38650;44.536;18.664;2022-09-09T14:52:43;1.48;;;0.75;;
52764;SDS011;38650;44.536;18.664;2022-09-09T14:55:09;1.13;;;0.90;;
52764;SDS011;38650;44.536;18.664;2022-09-09T14:57:36;1.02;;;0.75;;
52764;SDS011;38650;44.536;18.664;2022-09-09T15:00:04;1.10;;;1.00;;
52764;SDS011;38650;44.536;18.664;2022-09-09T15:02:31;1.08;;;0.98;;
52764;SDS011;38650;44.536;18.664;2022-09-09T15:04:57;1.08;;;0.88;;
52764;SDS011;38650;44.536;18.664;2022-09-09T15:07:26;1.13;;;0.93;;
52764;SDS011;38650;44.536;18.664;2022-09-09T15:09:53;1.92;;;1.17;;
52764;SDS011;38650;44.536;18.664;2022-09-09T15:12:19;2.88;;;1.27;;
52764;SDS011;38650;44.536;18.664;2022-09-09T15:14:45;3.53;;;1.45;;
52764;SDS011;38650;44.536;18.664;2022-09-09T15:17:12;2.53;;;1.20;;
52764;SDS011;38650;44.536;18.664;2022-09-09T15:19:38;1.40;;;1.00;;
52764;SDS011;38650;44.536;18.664;2022-09-09T15:22:04;2.17;;;1.25;;
52764;SDS011;38650;44.536;18.664;2022-09-09T15:24:31;2.60;;;1.50;;
52764;SDS011;38650;44.536;18.664;2022-09-09T15:26:57;1.55;;;1.20;;
52764;SDS011;38650;44.536;18.664;2022-09-09T15:29:23;2.50;;;1.20;;
52764;SDS011;38650;44.536;18.664;2022-09-09T15:31:49;1.70;;;1.30;;
52764;SDS011;38650;44.536;18.664;2022-09-09T15:34:15;1.88;;;1.40;;
52764;SDS011;38650;44.536;18.664;2022-09-09T15:36:41;2.00;;;1.83;;
52764;SDS011;38650;44.536;18.664;2022-09-09T15:39:09;3.60;;;2.17;;
52764;SDS011;38650;44.536;18.664;2022-09-09T15:41:38;2.33;;;1.70;;
52764;SDS011;38650;44.536;18.664;2022-09-09T15:44:04;3.00;;;1.60;;
52764;SDS011;38650;44.536;18.664;2022-09-09T15:49:15;1.65;;;1.55;;
52764;SDS011;38650;44.536;18.664;2022-09-09T15:51:43;3.00;;;1.75;;
52764;SDS011;38650;44.536;18.664;2022-09-09T15:54:12;2.58;;;1.92;;
52764;SDS011;38650;44.536;18.664;2022-09-09T15:56:41;3.67;;;2.00;;
52764;SDS011;38650;44.536;18.664;2022-09-09T15:59:07;3.55;;;2.10;;
52764;SDS011;38650;44.536;18.664;2022-09-09T16:01:33;2.78;;;2.00;;
52764;SDS011;38650;44.536;18.664;2022-09-09T16:03:59;2.47;;;1.33;;
52764;SDS011;38650;44.536;18.664;2022-09-09T16:06:26;1.83;;;1.50;;
52764;SDS011;38650;44.536;18.664;2022-09-09T16:08:53;2.47;;;1.60;;
52764;SDS011;38650;44.536;18.664;2022-09-09T16:11:25;3.80;;;1.77;;
52764;SDS011;38650;44.536;18.664;2022-09-09T16:13:53;1.83;;;1.33;;
52764;SDS011;38650;44.536;18.664;2022-09-09T16:16:21;3.05;;;2.10;;
52764;SDS011;38650;44.536;18.664;2022-09-09T16:18:50;2.25;;;1.80;;
52764;SDS011;38650;44.536;18.664;2022-09-09T16:23:49;2.80;;;1.63;;
52764;SDS011;38650;44.536;18.664;2022-09-09T16:26:16;3.30;;;2.00;;
52764;SDS011;38650;44.536;18.664;2022-09-09T16:28:43;1.80;;;1.70;;
52764;SDS011;38650;44.536;18.664;2022-09-09T16:31:10;2.45;;;1.92;;
52764;SDS011;38650;44.536;18.664;2022-09-09T16:33:39;2.17;;;1.60;;
52764;SDS011;38650;44.536;18.664;2022-09-09T16:36:07;2.78;;;2.15;;
52764;SDS011;38650;44.536;18.664;2022-09-09T16:38:35;3.85;;;2.13;;
52764;SDS011;38650;44.536;18.664;2022-09-09T16:41:02;2.03;;;1.83;;
52764;SDS011;38650;44.536;18.664;2022-09-09T16:43:30;3.83;;;2.35;;
52764;SDS011;38650;44.536;18.664;2022-09-09T16:45:57;3.95;;;3.00;;
52764;SDS011;38650;44.536;18.664;2022-09-09T16:48:25;4.82;;;2.83;;
52764;SDS011;38650;44.536;18.664;2022-09-09T16:50:52;5.97;;;3.53;;
52764;SDS011;38650;44.536;18.664;2022-09-09T16:53:18;6.15;;;4.20;;
52764;SDS011;38650;44.536;18.664;2022-09-09T16:55:43;3.15;;;2.00;;
52764;SDS011;38650;44.536;18.664;2022-09-09T16:58:12;1.52;;;0.93;;
52764;SDS011;38650;44.536;18.664;2022-09-09T17:00:38;1.17;;;1.08;;
52764;SDS011;38650;44.536;18.664;2022-09-09T17:03:03;1.33;;;0.90;;
52764;SDS011;38650;44.536;18.664;2022-09-09T17:05:30;1.80;;;1.13;;
52764;SDS011;38650;44.536;18.664;2022-09-09T17:07:57;1.45;;;1.08;;
52764;SDS011;38650;44.536;18.664;2022-09-09T17:10:24;1.20;;;1.02;;
52764;SDS011;38650;44.536;18.664;2022-09-09T17:12:50;1.95;;;1.10;;
52764;SDS011;38650;44.536;18.664;2022-09-09T17:15:16;1.58;;;1.10;;
52764;SDS011;38650;44.536;18.664;2022-09-09T17:17:43;1.10;;;1.00;;